Latest Weather Observations for Grafton Airport

IDN60801

Issued at 8:03 am EST Saturday 29 August 2015 (issued every 30 minutes, with the page automatically refreshed every 10 minutes)

About weather observations | Map of weather stations | Latest weather observations for NSW | Other Formats
Station Details ID: 058161 Name: GRAFTON AIRPORT AWS Lat: -29.76 Lon: 153.03 Height: 25.09 m
Data from the previous 72 hours. | See also: Recent months at Grafton Airport
Date/Time
EST
Temp
°C
App
Temp
°C
Dew
Point
Rel
Hum
%
Delta-T
°C
Wind Press
QNH
hPa
Press
MSL
hPa
Rain
since 9 am
mm
Dir
 
Spd
km/h
Gust
km/h
Spd
kts
Gust
kts
29/08:00am 10.8 9.4 7.1 78 1.8 S 4 7 2 4 1024.0 1024.0 0.2
29/07:30am 8.8 8.0 6.4 85 1.1 CALM 0 0 0 0 1024.0 1024.0 0.2
29/07:00am 7.3 6.4 6.2 93 0.5 CALM 0 6 0 3 1023.8 1023.8 0.2
29/06:30am 6.4 5.4 5.7 95 0.3 CALM 0 0 0 0 1023.5 1023.5 0.2
29/06:00am 6.4 5.0 5.7 95 0.3 S 2 6 1 3 1023.0 1023.0 0.2
29/05:30am 6.5 5.2 5.8 95 0.3 SSW 2 7 1 4 1022.8 1022.8 0.2
29/05:00am 6.5 5.5 5.6 94 0.4 CALM 0 0 0 0 1022.5 1022.5 0.2
29/04:30am 6.9 4.8 5.8 93 0.5 SSW 6 7 3 4 1022.5 1022.5 0.2
29/04:00am 7.1 5.7 5.4 89 0.8 S 2 7 1 4 1022.2 1022.2 0.2
29/03:30am 7.9 7.0 6.2 89 0.8 CALM 0 0 0 0 1022.4 1022.4 0.2
29/03:00am 7.7 5.2 6.5 92 0.5 S 9 11 5 6 1022.4 1022.4 0.2
29/02:30am 8.1 7.2 6.1 87 0.9 CALM 0 0 0 0 1022.6 1022.6 0.2
29/02:00am 8.1 6.4 5.7 85 1.1 WSW 4 7 2 4 1022.6 1022.6 0.2
29/01:30am 9.0 6.4 6.3 83 1.2 SW 9 11 5 6 1022.6 1022.6 0.2
29/01:00am 9.2 7.1 6.5 83 1.2 SSW 7 9 4 5 1022.9 1022.9 0.2
29/12:30am 9.4 6.3 7.2 86 1.0 SSW 13 15 7 8 1023.1 1023.1 0.2
29/12:00am 9.7 7.1 7.8 88 0.9 SSW 11 13 6 7 1023.2 1023.2 0.2
 
Date/Time
EST
Temp
°C
App
Temp
°C
Dew
Point
Rel
Hum
%
Delta-T
°C
Wind Press
QNH
hPa
Press
MSL
hPa
Rain
since 9 am
mm
Dir
 
Spd
km/h
Gust
km/h
Spd
kts
Gust
kts
28/11:30pm 9.3 7.4 7.6 89 0.8 SSW 7 11 4 6 1023.1 1023.1 0.2
28/11:00pm 9.5 7.3 7.9 90 0.8 SSW 9 11 5 6 1023.3 1023.3 0.2
28/10:30pm 9.5 7.7 7.9 90 0.8 SSW 7 9 4 5 1023.4 1023.4 0.2
28/10:00pm 10.1 8.0 8.2 88 0.9 SSW 9 13 5 7 1023.4 1023.4 0.2
28/09:30pm 10.8 8.6 8.0 83 1.4 SSW 9 11 5 6 1023.2 1023.2 0.2
28/09:00pm 10.9 8.9 8.5 85 1.2 SSW 9 11 5 6 1023.0 1023.0 0.2
28/08:30pm 10.8 9.2 8.2 84 1.3 SW 6 9 3 5 1022.6 1022.6 0.2
28/08:00pm 11.5 9.8 8.5 82 1.5 SSW 7 9 4 5 1022.4 1022.4 0.2
28/07:30pm 13.0 12.0 8.7 75 2.2 SSW 4 7 2 4 1021.9 1021.9 0.2
28/07:00pm 13.9 12.3 7.9 67 3.0 SSW 6 9 3 5 1021.3 1021.3 0.2
28/06:30pm 15.5 13.9 8.0 61 3.8 ESE 6 11 3 6 1020.9 1020.9 0.2
28/06:00pm 16.4 13.9 8.4 59 4.1 SE 11 19 6 10 1020.3 1020.3 0.2
28/05:30pm 17.3 14.2 8.7 57 4.4 ESE 15 22 8 12 1020.0 1020.0 0.2
28/05:00pm 18.4 14.4 8.1 51 5.3 SE 19 28 10 15 1019.5 1019.5 0.2
28/04:30pm 20.8 17.3 5.6 37 7.5 S 13 26 7 14 1019.0 1019.0 0.2
28/04:00pm 22.9 19.5 1.8 25 9.9 SW 9 15 5 8 1018.6 1018.6 0.2
28/03:30pm 23.2 20.0 0.9 23 10.3 WSW 7 11 4 6 1018.4 1018.4 0.2
28/03:00pm 22.8 18.6 -0.6 21 10.4 WNW 11 19 6 10 1018.3 1018.3 0.2
28/02:30pm 22.7 18.7 2.8 27 9.5 SW 13 24 7 13 1018.4 1018.4 0.2
28/02:00pm 22.7 18.8 1.1 24 9.9 W 11 19 6 10 1018.6 1018.6 0.2
28/01:30pm 22.1 18.1 2.8 28 9.2 WNW 13 22 7 12 1018.9 1018.9 0.2
28/01:00pm 21.9 18.4 3.6 30 8.8 WSW 11 19 6 10 1019.2 1019.2 0.2
28/12:30pm 21.2 18.1 3.4 31 8.5 WSW 9 19 5 10 1019.8 1019.8 0.2
28/12:00pm 20.7 16.1 3.9 33 8.0 WSW 17 28 9 15 1020.4 1020.4 0.2
28/11:30am 20.5 16.8 4.5 35 7.8 W 13 20 7 11 1021.1 1021.1 0.2
28/11:00am 19.4 15.6 5.8 41 6.7 W 15 22 8 12 1021.5 1021.5 0.0
28/10:30am 18.7 16.0 7.2 47 5.8 W 11 22 6 12 1022.0 1022.0 0.0
28/10:00am 18.0 15.4 5.9 45 5.9 W 9 19 5 10 1022.3 1022.3 0.0
28/09:30am 17.1 14.3 6.9 51 5.1 W 11 17 6 9 1022.2 1022.2 0.0
28/09:00am 16.5 14.2 9.0 61 3.9 W 11 20 6 11 1022.4 1022.4 3.4
28/08:30am 15.2 13.6 8.9 66 3.2 WSW 7 11 4 6 1022.4 1022.4 3.4
28/08:00am 13.8 12.2 10.2 79 1.9 SW 9 13 5 7 1022.2 1022.2 3.4
28/07:30am 11.9 10.8 10.1 89 0.9 SSW 6 11 3 6 1022.1 1022.1 3.4
28/07:00am 10.6 10.8 10.4 99 0.1 CALM 0 0 0 0 1021.8 1021.8 3.4
28/06:30am 10.0 9.6 9.9 99 0.1 S 2 6 1 3 1021.5 1021.5 3.4
28/06:14am 10.2 9.9 10.0 99 0.1 S 2 6 1 3 1021.3 1021.3 3.4
28/06:00am 10.2 9.1 10.0 99 0.1 SSW 6 9 3 5 1021.3 1021.3 3.4
28/05:50am 9.8 8.6 9.7 99 0.1 SSW 6 7 3 4 1021.2 1021.2 3.4
28/05:30am 10.5 9.5 10.3 99 0.1 SW 6 7 3 4 1020.9 1020.9 3.4
28/05:18am 10.6 9.4 10.4 99 0.1 WSW 7 9 4 5 1020.8 1020.8 3.4
28/05:00am 10.5 9.3 10.2 98 0.2 SW 7 9 4 5 1020.6 1020.6 3.4
28/04:40am 11.3 11.3 11.0 98 0.2 SW 2 6 1 3 1020.3 1020.3 3.4
28/04:39am 11.3 11.2 10.8 97 0.3 SW 2 6 1 3 1020.3 1020.3 3.4
28/04:30am 11.7 11.0 11.4 98 0.2 SW 6 7 3 4 1020.3 1020.3 3.4
28/04:20am 11.5 11.1 11.0 97 0.3 WSW 4 7 2 4 1020.2 1020.2 3.4
28/04:00am 12.1 11.5 11.6 97 0.3 SW 6 7 3 4 1020.0 1020.0 3.4
28/03:30am 12.8 12.4 12.3 97 0.3 WSW 6 9 3 5 1019.8 1019.8 3.4
28/03:00am 13.3 13.1 13.1 99 0.1 SW 6 7 3 4 1019.8 1019.8 3.4
28/02:48am 13.4 13.3 13.2 99 0.1 SW 6 7 3 4 1019.8 1019.8 3.4
28/02:30am 13.3 14.3 13.1 99 0.1 CALM 0 0 0 0 1019.9 1019.9 3.4
28/02:16am 13.3 14.3 13.1 99 0.1 CALM 0 0 0 0 1020.1 1020.1 3.4
28/02:14am 13.4 14.4 13.2 99 0.1 CALM 0 0 0 0 1020.0 1020.0 3.4
28/02:00am 13.5 14.5 13.3 99 0.1 CALM 0 0 0 0 1020.1 1020.1 3.4
28/01:30am 13.5 14.5 13.3 99 0.1 CALM 0 0 0 0 1020.4 1020.4 3.4
28/01:09am 13.5 14.5 13.3 99 0.1 CALM 0 0 0 0 1020.4 1020.4 3.4
28/01:00am 13.6 14.7 13.4 99 0.1 CALM 0 0 0 0 1020.6 1020.6 3.4
28/12:59am 13.6 14.7 13.4 99 0.1 CALM 0 0 0 0 1020.6 1020.6 3.4
28/12:30am 13.8 14.9 13.6 99 0.1 CALM 0 0 0 0 1020.7 1020.7 3.4
28/12:00am 13.9 14.7 13.7 99 0.1 SW 2 6 1 3 1020.7 1020.7 3.4
 
Date/Time
EST
Temp
°C
App
Temp
°C
Dew
Point
Rel
Hum
%
Delta-T
°C
Wind Press
QNH
hPa
Press
MSL
hPa
Rain
since 9 am
mm
Dir
 
Spd
km/h
Gust
km/h
Spd
kts
Gust
kts
27/11:30pm 14.0 15.2 13.8 99 0.1 CALM 0 0 0 0 1020.5 1020.5 3.4
27/11:00pm 14.1 14.6 13.9 99 0.1 S 4 7 2 4 1020.3 1020.3 3.4
27/10:30pm 14.2 15.1 14.0 99 0.1 SSW 2 6 1 3 1020.5 1020.5 3.4
27/10:27pm 14.2 14.7 14.0 99 0.1 SW 4 9 2 5 1020.5 1020.5 3.4
27/10:00pm 14.1 15.3 13.8 98 0.2 CALM 0 6 0 3 1020.6 1020.6 3.4
27/09:30pm 14.0 14.1 13.8 99 0.1 SSW 6 9 3 5 1020.8 1020.8 3.4
27/09:00pm 14.0 15.2 13.7 98 0.2 CALM 0 0 0 0 1020.6 1020.6 3.4
27/08:43pm 14.0 15.2 13.7 98 0.2 CALM 0 0 0 0 1020.7 1020.7 3.4
27/08:30pm 14.1 14.0 13.8 98 0.2 E 7 7 4 4 1020.3 1020.3 3.4
27/08:28pm 14.1 14.0 13.8 98 0.2 E 7 7 4 4 1020.2 1020.2 3.4
27/08:00pm 14.1 14.5 13.8 98 0.2 SW 4 7 2 4 1020.5 1020.5 3.4
27/07:30pm 14.1 15.3 13.8 98 0.2 CALM 0 6 0 3 1020.4 1020.4 3.4
27/07:22pm 14.0 14.3 13.5 97 0.3 NE 4 7 2 4 1020.4 1020.4 3.4
27/07:00pm 13.9 15.0 13.4 97 0.3 CALM 0 7 0 4 1020.0 1020.0 3.4
27/06:30pm 14.1 15.1 13.3 95 0.4 CALM 0 0 0 0 1019.8 1019.8 3.4
27/06:00pm 14.1 15.2 13.5 96 0.3 CALM 0 0 0 0 1019.4 1019.4 3.4
27/05:30pm 14.2 14.0 13.6 96 0.3 NNE 7 9 4 5 1019.0 1019.0 3.0
27/05:00pm 14.3 13.6 13.3 94 0.6 N 9 13 5 7 1018.9 1018.9 2.6
27/04:30pm 14.3 12.6 12.5 89 1.0 NNE 13 17 7 9 1018.7 1018.7 2.0
27/04:00pm 15.0 14.9 13.2 89 1.0 NNW 6 11 3 6 1018.9 1018.9 1.8
27/03:30pm 15.2 14.8 12.3 83 1.6 NNW 6 9 3 5 1018.3 1018.3 1.6
27/03:00pm 15.6 15.7 11.4 76 2.3 NW 2 7 1 4 1018.4 1018.4 1.4
27/02:30pm 15.8 14.5 10.1 69 3.0 NW 7 11 4 6 1018.8 1018.8 1.4
27/02:00pm 16.4 15.6 11.1 71 2.8 NW 6 9 3 5 1018.6 1018.6 1.4
27/01:30pm 16.6 17.2 13.1 80 2.0 NW 2 7 1 4 1018.5 1018.5 1.4
27/01:00pm 15.9 15.8 10.9 72 2.7 W 2 9 1 5 1019.1 1019.1 1.4
27/12:30pm 15.8 15.9 12.7 82 1.7 WSW 4 7 2 4 1020.1 1020.1 1.2
27/12:00pm 16.0 15.6 12.4 79 2.0 W 6 9 3 5 1021.2 1021.2 0.8
27/11:30am 16.6 15.8 11.1 70 3.0 NW 6 9 3 5 1020.9 1020.9 0.6
27/11:00am 17.0 16.5 12.1 73 2.7 NNW 6 9 3 5 1021.0 1021.0 0.6
27/10:30am 15.9 16.1 14.1 89 1.0 NNW 6 9 3 5 1021.8 1021.8 0.6
27/10:00am 15.4 15.6 13.1 86 1.3 N 4 9 2 5 1022.0 1022.0 0.0
27/09:30am 15.2 14.6 13.4 89 1.0 N 9 15 5 8 1022.0 1022.0 0.0
27/09:00am 14.9 14.2 13.1 89 1.0 NNE 9 11 5 6 1021.4 1021.4 0.0
27/08:30am 14.4 15.2 12.6 89 1.0 CALM 0 0 0 0 1021.3 1021.3 0.0
27/08:00am 14.1 13.7 12.3 89 1.0 WSW 6 9 3 5 1021.4 1021.4 0.0
27/07:30am 14.2 14.5 12.1 87 1.1 SW 2 7 1 4 1020.9 1020.9 0.0
27/07:00am 14.1 14.7 12.0 87 1.1 CALM 0 0 0 0 1020.6 1020.6 0.0
27/06:30am 13.7 13.5 11.7 88 1.1 SSE 4 6 2 3 1020.6 1020.6 0.0
27/06:00am 13.5 12.5 12.2 92 0.7 S 9 11 5 6 1020.6 1020.6 0.0
27/05:30am 13.5 13.0 12.6 94 0.5 S 7 9 4 5 1020.1 1020.1 0.0
27/05:00am 13.8 14.6 12.4 91 0.8 CALM 0 0 0 0 1020.4 1020.4 0.0
27/04:30am 13.9 14.6 12.3 90 0.9 CALM 0 0 0 0 1020.3 1020.3 0.0
27/04:00am 14.1 14.6 11.6 85 1.3 CALM 0 0 0 0 1019.6 1019.6 0.0
27/03:30am 14.2 14.4 11.7 85 1.3 WSW 2 6 1 3 1020.1 1020.1 0.0
27/03:00am 14.1 13.4 11.4 84 1.4 WSW 6 7 3 4 1019.6 1019.6 0.0
27/02:30am 14.3 13.4 11.3 82 1.6 SSW 7 11 4 6 1019.4 1019.4 0.0
27/02:00am 14.4 13.1 11.4 82 1.6 SSW 9 11 5 6 1020.3 1020.3 0.0
27/01:30am 14.7 13.2 11.8 83 1.6 S 11 13 6 7 1019.8 1019.8 0.0
27/01:00am 14.6 13.3 11.4 81 1.7 SSW 9 13 5 7 1020.9 1020.9 0.0
27/12:30am 14.5 13.6 11.3 81 1.7 SW 7 11 4 6 1020.9 1020.9 0.0
27/12:00am 14.4 12.7 11.2 81 1.7 SSW 11 13 6 7 1020.6 1020.6 0.0
 
Date/Time
EST
Temp
°C
App
Temp
°C
Dew
Point
Rel
Hum
%
Delta-T
°C
Wind Press
QNH
hPa
Press
MSL
hPa
Rain
since 9 am
mm
Dir
 
Spd
km/h
Gust
km/h
Spd
kts
Gust
kts
26/11:30pm 14.5 13.2 11.3 81 1.7 SSW 9 13 5 7 1020.9 1020.9 0.0
26/11:00pm 14.2 13.2 11.0 81 1.7 SW 7 11 4 6 1020.9 1020.9 0.0
26/10:30pm 14.9 13.6 11.3 79 1.9 SSW 9 13 5 7 1020.9 1020.9 0.0
26/10:00pm 15.0 13.4 11.6 80 1.8 SSW 11 15 6 8 1021.1 1021.1 0.0
26/09:30pm 14.4 13.2 11.6 83 1.5 SSW 9 11 5 6 1021.4 1021.4 0.0
26/09:00pm 14.3 13.5 11.8 85 1.3 SSW 7 9 4 5 1021.1 1021.1 0.0
26/08:30pm 13.8 12.9 11.3 85 1.3 SW 7 9 4 5 1020.8 1020.8 0.0
26/08:00pm 14.6 13.8 11.6 82 1.6 SSW 7 9 4 5 1020.3 1020.3 0.0
26/07:30pm 15.7 14.8 11.5 76 2.3 SW 7 9 4 5 1020.2 1020.2 0.0
26/07:00pm 16.7 15.5 11.6 72 2.8 SSW 9 15 5 8 1019.5 1019.5 0.0
26/06:30pm 18.0 15.5 12.2 69 3.2 SE 17 24 9 13 1018.8 1018.8 0.0
26/06:00pm 18.5 15.3 11.3 63 3.9 SE 19 30 10 16 1018.2 1018.2 0.0
26/05:30pm 19.2 17.5 8.2 49 5.7 ESE 7 9 4 5 1017.7 1017.7 0.0
26/05:00pm 21.5 19.5 7.0 39 7.4 N 7 11 4 6 1017.4 1017.4 0.0
26/04:30pm 23.6 20.8 5.0 30 9.3 NNW 9 17 5 9 1017.4 1017.4 0.0
26/04:00pm 24.2 20.6 5.1 29 9.6 NNW 13 17 7 9 1016.9 1016.9 0.0
26/03:30pm 24.3 20.7 5.1 29 9.7 NNW 13 20 7 11 1016.7 1016.7 0.0
26/03:00pm 24.3 20.3 5.1 29 9.7 NNW 15 20 8 11 1016.6 1016.6 0.0
26/02:30pm 24.0 19.2 4.9 29 9.6 NNW 19 32 10 17 1017.0 1017.0 0.0
26/02:00pm 24.1 21.1 5.9 31 9.3 NW 11 17 6 9 1017.5 1017.5 0.0
26/01:30pm 23.7 20.6 7.3 35 8.6 NW 13 22 7 12 1017.6 1017.6 0.0
26/01:00pm 22.8 19.1 6.1 34 8.5 NNW 15 24 8 13 1017.9 1017.9 0.0
26/12:30pm 22.6 19.7 6.4 35 8.3 NNW 11 19 6 10 1018.3 1018.3 0.0
26/12:00pm 22.1 18.9 6.7 37 7.9 W 13 20 7 11 1018.9 1018.9 0.0
26/11:30am 22.2 18.8 6.0 35 8.2 NW 13 26 7 14 1019.4 1019.4 0.0
26/11:00am 21.7 18.8 6.4 37 7.7 WNW 11 19 6 10 1019.7 1019.7 0.0
26/10:30am 20.8 17.4 4.0 33 8.1 WNW 11 20 6 11 1020.0 1020.0 0.0
26/10:00am 20.0 16.9 7.4 44 6.4 WSW 13 19 7 10 1020.3 1020.3 0.0
26/09:30am 18.7 15.5 6.9 46 5.9 WSW 13 20 7 11 1020.6 1020.6 0.0
26/09:00am 18.2 15.5 7.3 49 5.5 SW 11 19 6 10 1020.7 1020.7 0.0
26/08:30am 17.2 14.8 7.0 51 5.1 WSW 9 17 5 9 1020.8 1020.8 0.0

Other Formats:

Comma delimited format used in spreadsheet applications
http://www.bom.gov.au/fwo/IDN60801/IDN60801.95570.axf

JavaScript Object Notation format (JSON) in row-major order
http://www.bom.gov.au/fwo/IDN60801/IDN60801.95570.json